sensor_id;sensor_type;location;lat;lon;timestamp;pressure;altitude;pressure_sealevel;temperature;humidity
68859;BME280;55864;49.238;8.092;2023-04-07T00:00:14;99382.78;;;8.01;82.84
68859;BME280;55864;49.238;8.092;2023-04-07T00:02:15;99382.56;;;8.04;82.38
68859;BME280;55864;49.238;8.092;2023-04-07T00:04:15;99383.13;;;8.07;82.81
68859;BME280;55864;49.238;8.092;2023-04-07T00:06:17;99387.16;;;8.11;82.27
68859;BME280;55864;49.238;8.092;2023-04-07T00:08:18;99380.13;;;8.12;82.72
68859;BME280;55864;49.238;8.092;2023-04-07T00:10:19;99370.47;;;8.12;82.84
68859;BME280;55864;49.238;8.092;2023-04-07T00:12:19;99375.13;;;8.09;82.28
68859;BME280;55864;49.238;8.092;2023-04-07T00:14:20;99366.22;;;8.11;82.38
68859;BME280;55864;49.238;8.092;2023-04-07T00:16:20;99366.22;;;8.11;82.12
68859;BME280;55864;49.238;8.092;2023-04-07T00:18:21;99365.09;;;8.14;82.47
68859;BME280;55864;49.238;8.092;2023-04-07T00:20:21;99365.09;;;8.14;83.19
68859;BME280;55864;49.238;8.092;2023-04-07T00:22:23;99365.25;;;8.12;82.60
68859;BME280;55864;49.238;8.092;2023-04-07T00:24:24;99352.88;;;8.14;82.63
68859;BME280;55864;49.238;8.092;2023-04-07T00:26:24;99352.63;;;8.17;82.61
68859;BME280;55864;49.238;8.092;2023-04-07T00:28:25;99345.72;;;8.16;82.59
68859;BME280;55864;49.238;8.092;2023-04-07T00:30:25;99350.94;;;8.16;83.32
68859;BME280;55864;49.238;8.092;2023-04-07T00:32:26;99344.63;;;8.19;82.87
68859;BME280;55864;49.238;8.092;2023-04-07T00:34:26;99335.81;;;8.20;82.11
68859;BME280;55864;49.238;8.092;2023-04-07T00:36:27;99338.28;;;8.21;82.53
68859;BME280;55864;49.238;8.092;2023-04-07T00:38:29;99328.66;;;8.22;82.51
68859;BME280;55864;49.238;8.092;2023-04-07T00:40:30;99332.59;;;8.27;81.93
68859;BME280;55864;49.238;8.092;2023-04-07T00:42:32;99328.47;;;8.25;81.62
68859;BME280;55864;49.238;8.092;2023-04-07T00:44:33;99329.81;;;8.29;82.27
68859;BME280;55864;49.238;8.092;2023-04-07T00:46:33;99325.44;;;8.29;81.56
68859;BME280;55864;49.238;8.092;2023-04-07T00:48:35;99328.75;;;8.31;81.04
68859;BME280;55864;49.238;8.092;2023-04-07T00:50:36;99319.94;;;8.32;81.10
68859;BME280;55864;49.238;8.092;2023-04-07T00:52:37;99312.91;;;8.33;81.06
68859;BME280;55864;49.238;8.092;2023-04-07T00:54:40;99321.59;;;8.33;81.13
68859;BME280;55864;49.238;8.092;2023-04-07T00:56:41;99314.81;;;8.31;80.48
68859;BME280;55864;49.238;8.092;2023-04-07T00:58:42;99313.03;;;8.31;80.55
68859;BME280;55864;49.238;8.092;2023-04-07T01:00:48;99314.13;;;8.29;80.29
68859;BME280;55864;49.238;8.092;2023-04-07T01:02:55;99311.66;;;8.27;80.62
68859;BME280;55864;49.238;8.092;2023-04-07T01:05:04;99315.25;;;8.26;81.29
68859;BME280;55864;49.238;8.092;2023-04-07T01:07:12;99311.66;;;8.27;81.00
68859;BME280;55864;49.238;8.092;2023-04-07T01:09:22;99313.31;;;8.28;80.98
68859;BME280;55864;49.238;8.092;2023-04-07T01:11:31;99313.31;;;8.28;80.98
68859;BME280;55864;49.238;8.092;2023-04-07T01:13:37;99298.69;;;8.26;81.17
68859;BME280;55864;49.238;8.092;2023-04-07T01:15:51;99310.00;;;8.26;80.81
68859;BME280;55864;49.238;8.092;2023-04-07T01:18:00;99295.63;;;8.21;80.37
68859;BME280;55864;49.238;8.092;2023-04-07T01:20:06;99295.75;;;8.19;80.48
68859;BME280;55864;49.238;8.092;2023-04-07T01:22:13;99302.66;;;8.20;81.21
68859;BME280;55864;49.238;8.092;2023-04-07T01:24:26;99299.31;;;8.18;80.97
68859;BME280;55864;49.238;8.092;2023-04-07T01:26:36;99299.47;;;8.17;81.22
68859;BME280;55864;49.238;8.092;2023-04-07T01:28:55;99298.09;;;8.22;81.08
68859;BME280;55864;49.238;8.092;2023-04-07T01:33:15;99296.00;;;8.16;81.02
68859;BME280;55864;49.238;8.092;2023-04-07T01:35:17;99288.31;;;8.15;81.83
68859;BME280;55864;49.238;8.092;2023-04-07T01:37:19;99295.31;;;8.14;81.16
68859;BME280;55864;49.238;8.092;2023-04-07T01:39:21;99295.31;;;8.14;81.49
68859;BME280;55864;49.238;8.092;2023-04-07T01:41:22;99291.63;;;8.17;80.89
68859;BME280;55864;49.238;8.092;2023-04-07T01:43:24;99293.25;;;8.18;80.22
68859;BME280;55864;49.238;8.092;2023-04-07T01:45:26;99295.06;;;8.17;80.66
68859;BME280;55864;49.238;8.092;2023-04-07T01:47:31;99292.31;;;8.19;80.19
68859;BME280;55864;49.238;8.092;2023-04-07T01:49:32;99288.94;;;8.07;80.23
68859;BME280;55864;49.238;8.092;2023-04-07T01:51:34;99287.78;;;7.70;79.93
68859;BME280;55864;49.238;8.092;2023-04-07T01:53:36;99287.25;;;7.55;80.10
68859;BME280;55864;49.238;8.092;2023-04-07T01:55:38;99288.09;;;7.56;80.51
68859;BME280;55864;49.238;8.092;2023-04-07T01:57:41;99281.09;;;7.56;79.71
68859;BME280;55864;49.238;8.092;2023-04-07T01:59:48;99277.94;;;7.21;79.83
68859;BME280;55864;49.238;8.092;2023-04-07T02:01:50;99278.19;;;7.18;79.68
68859;BME280;55864;49.238;8.092;2023-04-07T02:03:55;99277.53;;;7.05;79.80
68859;BME280;55864;49.238;8.092;2023-04-07T02:06:05;99287.81;;;6.86;80.73
68859;BME280;55864;49.238;8.092;2023-04-07T02:08:07;99287.59;;;6.78;81.33
68859;BME280;55864;49.238;8.092;2023-04-07T02:12:31;99291.28;;;7.39;81.38
68859;BME280;55864;49.238;8.092;2023-04-07T02:16:46;99279.28;;;7.57;80.91
68859;BME280;55864;49.238;8.092;2023-04-07T02:18:47;99281.72;;;7.49;82.10
68859;BME280;55864;49.238;8.092;2023-04-07T02:20:51;99273.81;;;7.19;80.51
68859;BME280;55864;49.238;8.092;2023-04-07T02:22:52;99274.44;;;7.00;80.86
68859;BME280;55864;49.238;8.092;2023-04-07T02:24:52;99271.09;;;6.89;81.81
68859;BME280;55864;49.238;8.092;2023-04-07T02:26:59;99267.63;;;6.88;81.19
68859;BME280;55864;49.238;8.092;2023-04-07T02:29:00;99264.09;;;6.78;82.03
68859;BME280;55864;49.238;8.092;2023-04-07T02:31:01;99267.09;;;6.74;82.72
68859;BME280;55864;49.238;8.092;2023-04-07T02:33:01;99259.75;;;6.68;82.94
68859;BME280;55864;49.238;8.092;2023-04-07T02:35:02;99258.19;;;6.65;83.00
68859;BME280;55864;49.238;8.092;2023-04-07T02:37:04;99258.19;;;6.65;83.33
68859;BME280;55864;49.238;8.092;2023-04-07T02:39:05;99268.47;;;6.89;83.59
68859;BME280;55864;49.238;8.092;2023-04-07T02:41:05;99265.41;;;6.73;83.51
68859;BME280;55864;49.238;8.092;2023-04-07T02:43:06;99266.38;;;6.60;84.28
68859;BME280;55864;49.238;8.092;2023-04-07T02:45:08;99259.28;;;6.51;83.84
68859;BME280;55864;49.238;8.092;2023-04-07T02:47:10;99254.47;;;6.47;84.18
68859;BME280;55864;49.238;8.092;2023-04-07T02:49:11;99250.88;;;6.48;84.25
68859;BME280;55864;49.238;8.092;2023-04-07T02:51:12;99256.47;;;6.54;84.12
68859;BME280;55864;49.238;8.092;2023-04-07T02:53:14;99258.59;;;6.49;84.09
68859;BME280;55864;49.238;8.092;2023-04-07T02:55:14;99251.38;;;6.42;84.69
68859;BME280;55864;49.238;8.092;2023-04-07T02:57:15;99258.47;;;6.40;84.51
68859;BME280;55864;49.238;8.092;2023-04-07T02:59:16;99258.84;;;6.35;84.86
68859;BME280;55864;49.238;8.092;2023-04-07T03:01:18;99254.81;;;6.31;84.70
68859;BME280;55864;49.238;8.092;2023-04-07T03:03:18;99257.66;;;6.28;85.27
68859;BME280;55864;49.238;8.092;2023-04-07T03:05:31;99250.53;;;6.30;85.12
68859;BME280;55864;49.238;8.092;2023-04-07T03:07:33;99250.31;;;6.33;85.08
68859;BME280;55864;49.238;8.092;2023-04-07T03:09:36;99243.34;;;6.34;85.31
68859;BME280;55864;49.238;8.092;2023-04-07T03:11:37;99244.72;;;6.38;84.66
68859;BME280;55864;49.238;8.092;2023-04-07T03:13:37;99239.88;;;6.76;84.18
68859;BME280;55864;49.238;8.092;2023-04-07T03:15:38;99234.81;;;6.75;83.42
68859;BME280;55864;49.238;8.092;2023-04-07T03:17:39;99233.78;;;6.66;82.91
68859;BME280;55864;49.238;8.092;2023-04-07T03:19:40;99230.38;;;6.54;83.24
68859;BME280;55864;49.238;8.092;2023-04-07T03:21:41;99229.53;;;6.54;83.42
68859;BME280;55864;49.238;8.092;2023-04-07T03:23:43;99221.56;;;6.55;83.25
68859;BME280;55864;49.238;8.092;2023-04-07T03:25:45;99210.06;;;6.58;83.42
68859;BME280;55864;49.238;8.092;2023-04-07T03:27:46;99226.66;;;6.57;83.23
68859;BME280;55864;49.238;8.092;2023-04-07T03:29:48;99221.34;;;6.47;83.12
68859;BME280;55864;49.238;8.092;2023-04-07T03:31:50;99222.44;;;6.45;84.03
68859;BME280;55864;49.238;8.092;2023-04-07T03:33:55;99226.94;;;6.43;84.27
68859;BME280;55864;49.238;8.092;2023-04-07T03:35:56;99224.34;;;6.43;84.48
68859;BME280;55864;49.238;8.092;2023-04-07T03:37:58;99224.34;;;6.43;85.24
68859;BME280;55864;49.238;8.092;2023-04-07T03:39:59;99226.34;;;6.50;84.90
68859;BME280;55864;49.238;8.092;2023-04-07T03:42:05;99229.06;;;6.49;84.73
68859;BME280;55864;49.238;8.092;2023-04-07T03:44:07;99228.25;;;6.48;84.79
68859;BME280;55864;49.238;8.092;2023-04-07T03:46:10;99221.34;;;6.47;85.26
68859;BME280;55864;49.238;8.092;2023-04-07T03:48:11;99227.97;;;6.51;85.22
68859;BME280;55864;49.238;8.092;2023-04-07T03:50:20;99219.00;;;6.44;84.79
68859;BME280;55864;49.238;8.092;2023-04-07T03:52:32;99221.16;;;6.39;85.16
68859;BME280;55864;49.238;8.092;2023-04-07T03:54:40;99207.84;;;6.42;85.34
68859;BME280;55864;49.238;8.092;2023-04-07T03:56:41;99214.84;;;6.42;85.56
68859;BME280;55864;49.238;8.092;2023-04-07T03:58:43;99214.25;;;6.38;85.32
68859;BME280;55864;49.238;8.092;2023-04-07T04:00:49;99218.63;;;6.38;85.01
68859;BME280;55864;49.238;8.092;2023-04-07T04:02:50;99223.84;;;6.38;85.49
68859;BME280;55864;49.238;8.092;2023-04-07T04:04:53;99221.38;;;6.36;84.94
68859;BME280;55864;49.238;8.092;2023-04-07T04:06:56;99219.88;;;6.34;85.79
68859;BME280;55864;49.238;8.092;2023-04-07T04:09:12;99226.97;;;6.32;85.92
68859;BME280;55864;49.238;8.092;2023-04-07T04:11:18;99218.44;;;6.30;85.94
68859;BME280;55864;49.238;8.092;2023-04-07T04:13:27;99217.34;;;6.32;86.59
68859;BME280;55864;49.238;8.092;2023-04-07T04:15:31;99217.47;;;6.31;86.42
68859;BME280;55864;49.238;8.092;2023-04-07T04:17:34;99219.25;;;6.30;86.81
68859;BME280;55864;49.238;8.092;2023-04-07T04:19:37;99225.06;;;6.34;86.72
68859;BME280;55864;49.238;8.092;2023-04-07T04:21:46;99220.94;;;6.20;86.50
68859;BME280;55864;49.238;8.092;2023-04-07T04:23:48;99224.75;;;6.16;86.22
68859;BME280;55864;49.238;8.092;2023-04-07T04:25:49;99225.44;;;6.29;86.13
68859;BME280;55864;49.238;8.092;2023-04-07T04:27:49;99222.81;;;6.29;86.11
68859;BME280;55864;49.238;8.092;2023-04-07T04:29:59;99221.75;;;6.21;86.27
68859;BME280;55864;49.238;8.092;2023-04-07T04:32:10;99220.22;;;6.18;86.72
68859;BME280;55864;49.238;8.092;2023-04-07T04:34:11;99226.38;;;6.17;86.25
68859;BME280;55864;49.238;8.092;2023-04-07T04:36:13;99227.31;;;6.27;86.44
68859;BME280;55864;49.238;8.092;2023-04-07T04:38:15;99226.88;;;6.22;86.15
68859;BME280;55864;49.238;8.092;2023-04-07T04:40:20;99231.56;;;6.28;85.92
68859;BME280;55864;49.238;8.092;2023-04-07T04:42:22;99234.09;;;6.30;86.10
68859;BME280;55864;49.238;8.092;2023-04-07T04:44:24;99231.09;;;6.34;86.40
68859;BME280;55864;49.238;8.092;2023-04-07T04:46:25;99233.72;;;6.34;86.21
68859;BME280;55864;49.238;8.092;2023-04-07T04:48:27;99234.81;;;6.32;85.55
68859;BME280;55864;49.238;8.092;2023-04-07T04:50:27;99236.09;;;6.37;85.24
68859;BME280;55864;49.238;8.092;2023-04-07T04:52:29;99232.53;;;6.27;85.07
68859;BME280;55864;49.238;8.092;2023-04-07T04:54:30;99239.81;;;6.13;85.25
68859;BME280;55864;49.238;8.092;2023-04-07T04:56:31;99234.22;;;6.06;85.23
68859;BME280;55864;49.238;8.092;2023-04-07T04:58:33;99243.34;;;6.01;85.68
68859;BME280;55864;49.238;8.092;2023-04-07T05:00:33;99238.72;;;5.93;85.92
68859;BME280;55864;49.238;8.092;2023-04-07T05:02:38;99238.13;;;5.90;85.66
68859;BME280;55864;49.238;8.092;2023-04-07T05:04:42;99232.94;;;5.90;86.04
68859;BME280;55864;49.238;8.092;2023-04-07T05:06:53;99230.44;;;5.88;86.13
68859;BME280;55864;49.238;8.092;2023-04-07T05:08:58;99241.00;;;5.87;85.99
68859;BME280;55864;49.238;8.092;2023-04-07T05:11:04;99242.06;;;5.84;86.36
68859;BME280;55864;49.238;8.092;2023-04-07T05:13:07;99240.47;;;5.82;86.15
68859;BME280;55864;49.238;8.092;2023-04-07T05:15:10;99238.81;;;5.81;86.37
68859;BME280;55864;49.238;8.092;2023-04-07T05:17:11;99243.69;;;5.85;86.09
68859;BME280;55864;49.238;8.092;2023-04-07T05:19:12;99246.09;;;5.88;85.99
68859;BME280;55864;49.238;8.092;2023-04-07T05:21:14;99239.44;;;5.84;86.04
68859;BME280;55864;49.238;8.092;2023-04-07T05:23:15;99232.34;;;5.86;86.07
68859;BME280;55864;49.238;8.092;2023-04-07T05:25:17;99229.47;;;5.89;85.83
68859;BME280;55864;49.238;8.092;2023-04-07T05:27:19;99232.59;;;5.94;85.98
68859;BME280;55864;49.238;8.092;2023-04-07T05:29:24;99231.97;;;5.91;86.09
68859;BME280;55864;49.238;8.092;2023-04-07T05:31:25;99227.59;;;5.91;86.61
68859;BME280;55864;49.238;8.092;2023-04-07T05:33:29;99230.91;;;5.93;86.77
68859;BME280;55864;49.238;8.092;2023-04-07T05:35:30;99228.06;;;5.96;87.09
68859;BME280;55864;49.238;8.092;2023-04-07T05:37:34;99237.41;;;5.99;86.35
68859;BME280;55864;49.238;8.092;2023-04-07T05:39:37;99236.09;;;6.15;87.29
68859;BME280;55864;49.238;8.092;2023-04-07T05:41:40;99240.38;;;6.27;86.90
68859;BME280;55864;49.238;8.092;2023-04-07T05:43:41;99245.81;;;6.35;86.54
68859;BME280;55864;49.238;8.092;2023-04-07T05:45:42;99238.31;;;6.42;86.55
68859;BME280;55864;49.238;8.092;2023-04-07T05:47:43;99236.91;;;6.49;86.44
68859;BME280;55864;49.238;8.092;2023-04-07T05:49:45;99235.59;;;6.54;86.13
68859;BME280;55864;49.238;8.092;2023-04-07T05:51:46;99233.44;;;6.59;86.02
68859;BME280;55864;49.238;8.092;2023-04-07T05:53:49;99238.16;;;6.65;85.66
68859;BME280;55864;49.238;8.092;2023-04-07T05:55:51;99222.25;;;6.68;85.48
68859;BME280;55864;49.238;8.092;2023-04-07T05:58:12;99225.34;;;6.74;85.17
68859;BME280;55864;49.238;8.092;2023-04-07T06:00:15;99223.75;;;6.82;84.64
68859;BME280;55864;49.238;8.092;2023-04-07T06:02:18;99228.84;;;6.84;84.39
68859;BME280;55864;49.238;8.092;2023-04-07T06:04:21;99231.69;;;6.81;84.36
68859;BME280;55864;49.238;8.092;2023-04-07T06:06:24;99241.88;;;6.84;84.69
68859;BME280;55864;49.238;8.092;2023-04-07T06:08:24;99233.25;;;6.83;84.58
68859;BME280;55864;49.238;8.092;2023-04-07T06:10:26;99225.03;;;6.88;84.75
68859;BME280;55864;49.238;8.092;2023-04-07T06:12:27;99221.72;;;6.86;85.16
68859;BME280;55864;49.238;8.092;2023-04-07T06:14:27;99223.75;;;6.82;85.67
68859;BME280;55864;49.238;8.092;2023-04-07T06:16:28;99216.78;;;6.72;85.40
68859;BME280;55864;49.238;8.092;2023-04-07T06:18:29;99217.28;;;6.65;85.47
68859;BME280;55864;49.238;8.092;2023-04-07T06:20:29;99224.72;;;6.81;85.07
68859;BME280;55864;49.238;8.092;2023-04-07T06:22:31;99225.41;;;6.83;84.71
68859;BME280;55864;49.238;8.092;2023-04-07T06:24:31;99218.44;;;6.73;84.18
68859;BME280;55864;49.238;8.092;2023-04-07T06:26:33;99227.09;;;6.73;83.96
68859;BME280;55864;49.238;8.092;2023-04-07T06:28:34;99231.53;;;6.93;84.67
68859;BME280;55864;49.238;8.092;2023-04-07T06:30:34;99233.31;;;6.93;84.89
68859;BME280;55864;49.238;8.092;2023-04-07T06:32:35;99233.31;;;6.93;85.35
68859;BME280;55864;49.238;8.092;2023-04-07T06:34:36;99232.09;;;6.97;84.85
68859;BME280;55864;49.238;8.092;2023-04-07T06:36:37;99233.44;;;6.91;84.47
68859;BME280;55864;49.238;8.092;2023-04-07T06:38:37;99235.22;;;6.91;85.22
68859;BME280;55864;49.238;8.092;2023-04-07T06:40:38;99239.41;;;6.82;85.59
68859;BME280;55864;49.238;8.092;2023-04-07T06:42:40;99229.94;;;6.81;86.91
68859;BME280;55864;49.238;8.092;2023-04-07T06:44:49;99230.63;;;6.83;86.46
68859;BME280;55864;49.238;8.092;2023-04-07T06:46:50;99239.63;;;6.90;86.62
68859;BME280;55864;49.238;8.092;2023-04-07T06:48:51;99243.97;;;7.01;86.17
68859;BME280;55864;49.238;8.092;2023-04-07T06:50:51;99247.34;;;7.12;85.63
68859;BME280;55864;49.238;8.092;2023-04-07T06:52:52;99241.81;;;7.06;86.18
68859;BME280;55864;49.238;8.092;2023-04-07T06:54:52;99243.19;;;7.10;86.86
68859;BME280;55864;49.238;8.092;2023-04-07T06:56:53;99254.75;;;7.07;86.62
68859;BME280;55864;49.238;8.092;2023-04-07T06:58:55;99244.94;;;7.00;85.87
68859;BME280;55864;49.238;8.092;2023-04-07T07:00:55;99244.22;;;6.98;85.79
68859;BME280;55864;49.238;8.092;2023-04-07T07:02:56;99244.44;;;6.95;85.47
68859;BME280;55864;49.238;8.092;2023-04-07T07:04:57;99247.53;;;7.00;85.49
68859;BME280;55864;49.238;8.092;2023-04-07T07:06:57;99246.66;;;7.10;86.98
68859;BME280;55864;49.238;8.092;2023-04-07T07:08:58;99248.41;;;7.10;86.40
68859;BME280;55864;49.238;8.092;2023-04-07T07:10:58;99253.41;;;7.13;86.29
68859;BME280;55864;49.238;8.092;2023-04-07T07:12:59;99251.09;;;7.19;86.35
68859;BME280;55864;49.238;8.092;2023-04-07T07:15:01;99248.50;;;7.19;85.76
68859;BME280;55864;49.238;8.092;2023-04-07T07:17:02;99249.53;;;7.28;86.16
68859;BME280;55864;49.238;8.092;2023-04-07T07:19:02;99256.03;;;7.33;85.90
68859;BME280;55864;49.238;8.092;2023-04-07T07:21:03;99252.66;;;7.42;85.95
68859;BME280;55864;49.238;8.092;2023-04-07T07:23:03;99258.28;;;7.58;85.44
68859;BME280;55864;49.238;8.092;2023-04-07T07:25:05;99252.84;;;7.71;84.72
68859;BME280;55864;49.238;8.092;2023-04-07T07:27:06;99256.34;;;7.81;84.97
68859;BME280;55864;49.238;8.092;2023-04-07T07:29:07;99253.31;;;7.86;84.55
68859;BME280;55864;49.238;8.092;2023-04-07T07:31:09;99253.88;;;7.80;85.27
68859;BME280;55864;49.238;8.092;2023-04-07T07:33:11;99248.38;;;7.83;84.67
68859;BME280;55864;49.238;8.092;2023-04-07T07:35:11;99256.50;;;7.89;84.68
68859;BME280;55864;49.238;8.092;2023-04-07T07:37:12;99253.81;;;8.00;83.54
68859;BME280;55864;49.238;8.092;2023-04-07T07:39:13;99250.56;;;8.08;83.34
68859;BME280;55864;49.238;8.092;2023-04-07T07:41:13;99252.50;;;8.15;83.04
68859;BME280;55864;49.238;8.092;2023-04-07T07:43:14;99254.47;;;8.23;83.96
68859;BME280;55864;49.238;8.092;2023-04-07T07:45:15;99249.81;;;8.26;84.19
68859;BME280;55864;49.238;8.092;2023-04-07T07:47:18;99251.91;;;8.32;82.54
68859;BME280;55864;49.238;8.092;2023-04-07T07:49:19;99253.03;;;8.39;82.90
68859;BME280;55864;49.238;8.092;2023-04-07T07:51:19;99249.59;;;8.48;83.75
68859;BME280;55864;49.238;8.092;2023-04-07T07:53:20;99252.78;;;8.62;82.51
68859;BME280;55864;49.238;8.092;2023-04-07T07:55:21;99259.72;;;8.72;82.46
68859;BME280;55864;49.238;8.092;2023-04-07T07:57:22;99256.00;;;8.75;82.57
68859;BME280;55864;49.238;8.092;2023-04-07T07:59:22;99261.09;;;8.86;82.55
68859;BME280;55864;49.238;8.092;2023-04-07T08:01:23;99270.63;;;8.87;82.36
68859;BME280;55864;49.238;8.092;2023-04-07T08:03:26;99260.56;;;8.92;83.73
68859;BME280;55864;49.238;8.092;2023-04-07T08:05:27;99270.25;;;9.01;84.16
68859;BME280;55864;49.238;8.092;2023-04-07T08:07:27;99269.41;;;9.10;82.94
68859;BME280;55864;49.238;8.092;2023-04-07T08:09:28;99271.06;;;9.20;82.86
68859;BME280;55864;49.238;8.092;2023-04-07T08:11:29;99273.13;;;9.26;82.67
68859;BME280;55864;49.238;8.092;2023-04-07T08:13:29;99277.97;;;9.31;82.16
68859;BME280;55864;49.238;8.092;2023-04-07T08:15:30;99280.69;;;9.39;81.46
68859;BME280;55864;49.238;8.092;2023-04-07T08:17:31;99282.50;;;9.48;80.94
68859;BME280;55864;49.238;8.092;2023-04-07T08:19:33;99285.78;;;9.60;80.45
68859;BME280;55864;49.238;8.092;2023-04-07T08:21:33;99266.63;;;9.59;79.57
68859;BME280;55864;49.238;8.092;2023-04-07T08:23:34;99275.72;;;9.65;80.31
68859;BME280;55864;49.238;8.092;2023-04-07T08:25:35;99280.81;;;9.76;80.31
68859;BME280;55864;49.238;8.092;2023-04-07T08:27:35;99277.75;;;9.80;79.22
68859;BME280;55864;49.238;8.092;2023-04-07T08:29:36;99281.63;;;9.86;78.88
68859;BME280;55864;49.238;8.092;2023-04-07T08:31:36;99276.75;;;9.91;78.01
68859;BME280;55864;49.238;8.092;2023-04-07T08:33:37;99281.97;;;10.00;78.44
68859;BME280;55864;49.238;8.092;2023-04-07T08:35:39;99277.94;;;10.15;77.52
68859;BME280;55864;49.238;8.092;2023-04-07T08:37:40;99277.09;;;10.24;78.28
68859;BME280;55864;49.238;8.092;2023-04-07T08:39:40;99269.63;;;10.29;77.27
68859;BME280;55864;49.238;8.092;2023-04-07T08:41:41;99276.84;;;10.45;76.31
68859;BME280;55864;49.238;8.092;2023-04-07T08:43:43;99273.06;;;10.57;76.33
68859;BME280;55864;49.238;8.092;2023-04-07T08:45:44;99276.25;;;10.78;75.43
68859;BME280;55864;49.238;8.092;2023-04-07T08:47:46;99271.06;;;10.86;74.55
68859;BME280;55864;49.238;8.092;2023-04-07T08:49:51;99270.03;;;10.97;73.46
68859;BME280;55864;49.238;8.092;2023-04-07T08:51:53;99270.81;;;11.07;73.61
68859;BME280;55864;49.238;8.092;2023-04-07T08:54:01;99267.63;;;11.21;73.57
68859;BME280;55864;49.238;8.092;2023-04-07T08:56:04;99268.84;;;11.26;72.76
68859;BME280;55864;49.238;8.092;2023-04-07T08:58:05;99270.56;;;11.35;71.93
68859;BME280;55864;49.238;8.092;2023-04-07T09:00:09;99264.94;;;11.48;71.06
68859;BME280;55864;49.238;8.092;2023-04-07T09:02:10;99273.84;;;11.55;70.82
68859;BME280;55864;49.238;8.092;2023-04-07T09:04:11;99268.13;;;11.60;70.33
68859;BME280;55864;49.238;8.092;2023-04-07T09:06:13;99268.66;;;11.63;70.41
68859;BME280;55864;49.238;8.092;2023-04-07T09:08:15;99273.63;;;11.66;70.25
68859;BME280;55864;49.238;8.092;2023-04-07T09:10:16;99270.72;;;11.69;70.99
68859;BME280;55864;49.238;8.092;2023-04-07T09:12:17;99280.31;;;11.78;70.28
68859;BME280;55864;49.238;8.092;2023-04-07T09:14:17;99273.75;;;11.82;67.38
68859;BME280;55864;49.238;8.092;2023-04-07T09:16:18;99276.84;;;11.78;68.18
68859;BME280;55864;49.238;8.092;2023-04-07T09:18:19;99276.00;;;11.77;68.83
68859;BME280;55864;49.238;8.092;2023-04-07T09:20:20;99271.41;;;11.79;66.78
68859;BME280;55864;49.238;8.092;2023-04-07T09:22:34;99273.09;;;11.80;66.67
68859;BME280;55864;49.238;8.092;2023-04-07T09:24:36;99276.91;;;11.86;66.84
68859;BME280;55864;49.238;8.092;2023-04-07T09:26:36;99280.09;;;11.97;65.39
68859;BME280;55864;49.238;8.092;2023-04-07T09:28:40;99272.38;;;11.96;66.04
68859;BME280;55864;49.238;8.092;2023-04-07T09:30:40;99273.16;;;11.96;66.42
68859;BME280;55864;49.238;8.092;2023-04-07T09:32:51;99279.16;;;12.06;66.08
68859;BME280;55864;49.238;8.092;2023-04-07T09:34:58;99277.00;;;12.02;66.05
68859;BME280;55864;49.238;8.092;2023-04-07T09:36:59;99272.38;;;11.96;65.40
68859;BME280;55864;49.238;8.092;2023-04-07T09:39:06;99277.75;;;11.94;65.08
68859;BME280;55864;49.238;8.092;2023-04-07T09:41:10;99270.69;;;11.95;64.31
68859;BME280;55864;49.238;8.092;2023-04-07T09:43:15;99274.16;;;11.95;64.62
68859;BME280;55864;49.238;8.092;2023-04-07T09:45:23;99275.50;;;11.99;64.74
68859;BME280;55864;49.238;8.092;2023-04-07T09:47:27;99280.25;;;11.96;65.52
68859;BME280;55864;49.238;8.092;2023-04-07T09:49:28;99281.91;;;11.97;65.83
68859;BME280;55864;49.238;8.092;2023-04-07T09:51:29;99278.75;;;11.93;66.09
68859;BME280;55864;49.238;8.092;2023-04-07T09:53:40;99280.22;;;11.88;65.72
68859;BME280;55864;49.238;8.092;2023-04-07T09:55:41;99278.34;;;11.80;65.90
68859;BME280;55864;49.238;8.092;2023-04-07T09:57:44;99280.47;;;11.77;65.81
68859;BME280;55864;49.238;8.092;2023-04-07T09:59:45;99287.84;;;11.73;66.21
68859;BME280;55864;49.238;8.092;2023-04-07T10:01:47;99283.03;;;11.69;66.37
68859;BME280;55864;49.238;8.092;2023-04-07T10:03:48;99286.19;;;11.72;66.44
68859;BME280;55864;49.238;8.092;2023-04-07T10:05:49;99290.16;;;11.76;66.33
68859;BME280;55864;49.238;8.092;2023-04-07T10:07:50;99302.63;;;11.74;67.10
68859;BME280;55864;49.238;8.092;2023-04-07T10:09:50;99291.78;;;11.77;67.82
68859;BME280;55864;49.238;8.092;2023-04-07T10:11:52;99303.00;;;11.79;68.36
68859;BME280;55864;49.238;8.092;2023-04-07T10:13:54;99297.97;;;11.68;68.99
68859;BME280;55864;49.238;8.092;2023-04-07T10:15:56;99301.78;;;11.66;67.75
68859;BME280;55864;49.238;8.092;2023-04-07T10:17:58;99297.88;;;11.60;67.53
68859;BME280;55864;49.238;8.092;2023-04-07T10:20:00;99304.81;;;11.61;67.51
68859;BME280;55864;49.238;8.092;2023-04-07T10:22:04;99305.50;;;11.63;66.73
68859;BME280;55864;49.238;8.092;2023-04-07T10:24:11;99302.50;;;11.58;66.57
68859;BME280;55864;49.238;8.092;2023-04-07T10:26:14;99301.50;;;11.59;66.34
68859;BME280;55864;49.238;8.092;2023-04-07T10:28:31;99300.66;;;11.59;65.79
68859;BME280;55864;49.238;8.092;2023-04-07T10:30:43;99303.97;;;11.61;65.00
68859;BME280;55864;49.238;8.092;2023-04-07T10:32:47;99303.81;;;11.62;64.64
68859;BME280;55864;49.238;8.092;2023-04-07T10:34:55;99305.59;;;11.71;64.14
68859;BME280;55864;49.238;8.092;2023-04-07T10:37:09;99303.63;;;11.73;64.22
68859;BME280;55864;49.238;8.092;2023-04-07T10:39:20;99307.75;;;11.76;63.22
68859;BME280;55864;49.238;8.092;2023-04-07T10:41:34;99305.94;;;11.76;64.14
68859;BME280;55864;49.238;8.092;2023-04-07T10:43:38;99298.41;;;11.81;64.10
68859;BME280;55864;49.238;8.092;2023-04-07T10:45:53;99296.16;;;11.86;63.96
68859;BME280;55864;49.238;8.092;2023-04-07T10:48:09;99295.50;;;11.92;63.32
68859;BME280;55864;49.238;8.092;2023-04-07T10:50:18;99303.13;;;11.95;63.81
68859;BME280;55864;49.238;8.092;2023-04-07T10:52:23;99294.38;;;11.95;64.36
68859;BME280;55864;49.238;8.092;2023-04-07T10:54:23;99307.09;;;11.99;64.57
68859;BME280;55864;49.238;8.092;2023-04-07T10:56:24;99301.22;;;12.05;63.04
68859;BME280;55864;49.238;8.092;2023-04-07T10:58:25;99305.16;;;12.09;62.59
68859;BME280;55864;49.238;8.092;2023-04-07T11:00:25;99308.81;;;12.08;62.82
68859;BME280;55864;49.238;8.092;2023-04-07T11:02:31;99312.41;;;12.07;63.14